sensor_id;sensor_type;location;lat;lon;timestamp;pressure;altitude;pressure_sealevel;temperature;humidity
80188;BME280;73735;52.134;5.436;2024-01-15T00:01:36;100483.78;;;2.04;88.56
80188;BME280;73735;52.134;5.436;2024-01-15T00:04:03;100484.69;;;2.03;88.72
80188;BME280;73735;52.134;5.436;2024-01-15T00:06:30;100482.25;;;2.00;88.31
80188;BME280;73735;52.134;5.436;2024-01-15T00:08:56;100477.13;;;1.99;88.67
80188;BME280;73735;52.134;5.436;2024-01-15T00:11:24;100476.28;;;1.98;88.92
80188;BME280;73735;52.134;5.436;2024-01-15T00:13:50;100467.81;;;1.95;88.31
80188;BME280;73735;52.134;5.436;2024-01-15T00:16:18;100463.53;;;1.94;88.87
80188;BME280;73735;52.134;5.436;2024-01-15T00:18:44;100471.47;;;1.91;88.17
80188;BME280;73735;52.134;5.436;2024-01-15T00:21:11;100468.97;;;1.89;88.31
80188;BME280;73735;52.134;5.436;2024-01-15T00:23:42;100465.53;;;1.89;88.29
80188;BME280;73735;52.134;5.436;2024-01-15T00:26:09;100458.66;;;1.88;88.31
80188;BME280;73735;52.134;5.436;2024-01-15T00:28:36;100454.44;;;1.85;88.54
80188;BME280;73735;52.134;5.436;2024-01-15T00:31:06;100446.88;;;1.81;88.29
80188;BME280;73735;52.134;5.436;2024-01-15T00:33:33;100453.06;;;1.78;88.42
80188;BME280;73735;52.134;5.436;2024-01-15T00:36:00;100453.06;;;1.78;88.25
80188;BME280;73735;52.134;5.436;2024-01-15T00:38:27;100449.78;;;1.74;88.80
80188;BME280;73735;52.134;5.436;2024-01-15T00:40:54;100442.06;;;1.73;88.51
80188;BME280;73735;52.134;5.436;2024-01-15T00:43:20;100439.41;;;1.74;88.25
80188;BME280;73735;52.134;5.436;2024-01-15T00:45:47;100436.09;;;1.71;88.14
80188;BME280;73735;52.134;5.436;2024-01-15T00:48:14;100432.81;;;1.67;88.02
80188;BME280;73735;52.134;5.436;2024-01-15T00:50:40;100425.09;;;1.66;88.23
80188;BME280;73735;52.134;5.436;2024-01-15T00:53:07;100423.59;;;1.62;88.34
80188;BME280;73735;52.134;5.436;2024-01-15T00:55:33;100421.06;;;1.60;88.18
80188;BME280;73735;52.134;5.436;2024-01-15T00:58:00;100421.19;;;1.57;87.94
80188;BME280;73735;52.134;5.436;2024-01-15T01:00:26;100427.31;;;1.56;88.06
80188;BME280;73735;52.134;5.436;2024-01-15T01:02:53;100424.72;;;1.56;88.24
80188;BME280;73735;52.134;5.436;2024-01-15T01:05:19;100425.75;;;1.52;87.81
80188;BME280;73735;52.134;5.436;2024-01-15T01:07:46;100423.31;;;1.49;88.18
80188;BME280;73735;52.134;5.436;2024-01-15T01:10:12;100415.63;;;1.48;88.12
80188;BME280;73735;52.134;5.436;2024-01-15T01:12:42;100412.19;;;1.47;88.24
80188;BME280;73735;52.134;5.436;2024-01-15T01:15:08;100411.41;;;1.45;87.77
80188;BME280;73735;52.134;5.436;2024-01-15T01:17:35;100409.72;;;1.44;87.59
80188;BME280;73735;52.134;5.436;2024-01-15T01:20:02;100408.06;;;1.43;87.83
80188;BME280;73735;52.134;5.436;2024-01-15T01:22:31;100407.22;;;1.42;88.12
80188;BME280;73735;52.134;5.436;2024-01-15T01:24:57;100408.31;;;1.37;87.99
80188;BME280;73735;52.134;5.436;2024-01-15T01:27:23;100413.50;;;1.37;87.86
80188;BME280;73735;52.134;5.436;2024-01-15T01:29:50;100404.97;;;1.35;87.79
80188;BME280;73735;52.134;5.436;2024-01-15T01:32:16;100419.59;;;1.36;87.69
80188;BME280;73735;52.134;5.436;2024-01-15T01:34:43;100410.00;;;1.38;87.50
80188;BME280;73735;52.134;5.436;2024-01-15T01:37:11;100420.53;;;1.35;87.61
80188;BME280;73735;52.134;5.436;2024-01-15T01:39:43;100412.66;;;1.36;87.15
80188;BME280;73735;52.134;5.436;2024-01-15T01:42:11;100415.34;;;1.35;87.66
80188;BME280;73735;52.134;5.436;2024-01-15T01:44:38;100413.50;;;1.37;87.39
80188;BME280;73735;52.134;5.436;2024-01-15T01:47:05;100415.13;;;1.39;87.85
80188;BME280;73735;52.134;5.436;2024-01-15T01:49:32;100405.66;;;1.38;87.71
80188;BME280;73735;52.134;5.436;2024-01-15T01:52:00;100404.75;;;1.39;87.66
80188;BME280;73735;52.134;5.436;2024-01-15T01:54:29;100408.19;;;1.40;87.03
80188;BME280;73735;52.134;5.436;2024-01-15T01:56:56;100400.41;;;1.40;87.30
80188;BME280;73735;52.134;5.436;2024-01-15T01:59:25;100406.50;;;1.39;87.16
80188;BME280;73735;52.134;5.436;2024-01-15T02:01:54;100399.50;;;1.41;86.81
80188;BME280;73735;52.134;5.436;2024-01-15T02:04:23;100408.06;;;1.43;87.30
80188;BME280;73735;52.134;5.436;2024-01-15T02:06:51;100401.03;;;1.45;87.08
80188;BME280;73735;52.134;5.436;2024-01-15T02:09:18;100404.09;;;1.53;86.79
80188;BME280;73735;52.134;5.436;2024-01-15T02:11:47;100418.41;;;1.62;87.01
80188;BME280;73735;52.134;5.436;2024-01-15T02:14:14;100431.81;;;1.70;87.25
80188;BME280;73735;52.134;5.436;2024-01-15T02:16:41;100442.75;;;1.76;86.76
80188;BME280;73735;52.134;5.436;2024-01-15T02:19:07;100459.69;;;1.84;86.94
80188;BME280;73735;52.134;5.436;2024-01-15T02:21:40;100433.22;;;1.77;86.70
80188;BME280;73735;52.134;5.436;2024-01-15T02:24:07;100418.63;;;1.74;87.09
80188;BME280;73735;52.134;5.436;2024-01-15T02:26:34;100422.06;;;1.75;87.25
80188;BME280;73735;52.134;5.436;2024-01-15T02:29:02;100415.19;;;1.74;87.42
80188;BME280;73735;52.134;5.436;2024-01-15T02:31:28;100423.06;;;1.72;87.74
80188;BME280;73735;52.134;5.436;2024-01-15T02:33:55;100411.13;;;1.68;88.17
80188;BME280;73735;52.134;5.436;2024-01-15T02:36:22;100411.06;;;1.70;87.79
80188;BME280;73735;52.134;5.436;2024-01-15T02:38:48;100417.09;;;1.70;88.41
80188;BME280;73735;52.134;5.436;2024-01-15T02:41:15;100414.44;;;1.72;88.28
80188;BME280;73735;52.134;5.436;2024-01-15T02:43:41;100415.34;;;1.71;88.40
80188;BME280;73735;52.134;5.436;2024-01-15T02:46:08;100411.91;;;1.70;88.45
80188;BME280;73735;52.134;5.436;2024-01-15T02:48:34;100402.31;;;1.72;88.56
80188;BME280;73735;52.134;5.436;2024-01-15T02:51:03;100398.88;;;1.72;88.67
80188;BME280;73735;52.134;5.436;2024-01-15T02:53:30;100400.63;;;1.71;88.73
80188;BME280;73735;52.134;5.436;2024-01-15T02:55:56;100404.06;;;1.72;88.18
80188;BME280;73735;52.134;5.436;2024-01-15T02:58:23;100405.66;;;1.74;88.43
80188;BME280;73735;52.134;5.436;2024-01-15T03:00:49;100403.84;;;1.76;88.31
80188;BME280;73735;52.134;5.436;2024-01-15T03:03:16;100399.56;;;1.75;88.36
80188;BME280;73735;52.134;5.436;2024-01-15T03:05:42;100403.91;;;1.75;88.42
80188;BME280;73735;52.134;5.436;2024-01-15T03:08:09;100388.47;;;1.72;88.58
80188;BME280;73735;52.134;5.436;2024-01-15T03:10:35;100390.03;;;1.76;88.63
80188;BME280;73735;52.134;5.436;2024-01-15T03:13:02;100385.66;;;1.76;88.66
80188;BME280;73735;52.134;5.436;2024-01-15T03:15:28;100386.50;;;1.77;88.76
80188;BME280;73735;52.134;5.436;2024-01-15T03:17:55;100388.19;;;1.78;88.39
80188;BME280;73735;52.134;5.436;2024-01-15T03:20:21;100393.38;;;1.78;89.02
80188;BME280;73735;52.134;5.436;2024-01-15T03:22:48;100391.59;;;1.78;88.58
80188;BME280;73735;52.134;5.436;2024-01-15T03:25:15;100384.00;;;1.75;88.96
80188;BME280;73735;52.134;5.436;2024-01-15T03:27:41;100392.69;;;1.74;88.81
80188;BME280;73735;52.134;5.436;2024-01-15T03:30:08;100390.25;;;1.71;88.87
80188;BME280;73735;52.134;5.436;2024-01-15T03:32:34;100405.72;;;1.73;88.83
80188;BME280;73735;52.134;5.436;2024-01-15T03:35:01;100410.22;;;1.69;88.83
80188;BME280;73735;52.134;5.436;2024-01-15T03:37:27;100405.88;;;1.70;89.14
80188;BME280;73735;52.134;5.436;2024-01-15T03:39:54;100423.97;;;1.71;89.15
80188;BME280;73735;52.134;5.436;2024-01-15T03:42:20;100422.22;;;1.72;89.16
80188;BME280;73735;52.134;5.436;2024-01-15T03:44:47;100424.66;;;1.75;89.08
80188;BME280;73735;52.134;5.436;2024-01-15T03:47:13;100416.75;;;1.78;88.95
80188;BME280;73735;52.134;5.436;2024-01-15T03:49:40;100407.94;;;1.81;89.39
80188;BME280;73735;52.134;5.436;2024-01-15T03:52:07;100400.09;;;1.82;88.80
80188;BME280;73735;52.134;5.436;2024-01-15T03:54:33;100394.19;;;1.78;89.02
80188;BME280;73735;52.134;5.436;2024-01-15T03:57:00;100375.59;;;1.70;89.10
80188;BME280;73735;52.134;5.436;2024-01-15T03:59:27;100369.56;;;1.70;88.76
80188;BME280;73735;52.134;5.436;2024-01-15T04:01:53;100369.78;;;1.65;89.26
80188;BME280;73735;52.134;5.436;2024-01-15T04:04:20;100367.41;;;1.61;88.87
80188;BME280;73735;52.134;5.436;2024-01-15T04:06:46;100367.50;;;1.59;89.01
80188;BME280;73735;52.134;5.436;2024-01-15T04:09:13;100360.69;;;1.57;89.19
80188;BME280;73735;52.134;5.436;2024-01-15T04:11:40;100352.34;;;1.50;89.18
80188;BME280;73735;52.134;5.436;2024-01-15T04:14:07;100349.03;;;1.48;89.42
80188;BME280;73735;52.134;5.436;2024-01-15T04:16:33;100357.72;;;1.47;89.32
80188;BME280;73735;52.134;5.436;2024-01-15T04:18:59;100354.34;;;1.45;89.22
80188;BME280;73735;52.134;5.436;2024-01-15T04:21:26;100358.00;;;1.41;89.11
80188;BME280;73735;52.134;5.436;2024-01-15T04:23:53;100351.13;;;1.40;88.99
80188;BME280;73735;52.134;5.436;2024-01-15T04:26:19;100351.28;;;1.37;89.01
80188;BME280;73735;52.134;5.436;2024-01-15T04:28:45;100342.19;;;1.28;89.47
80188;BME280;73735;52.134;5.436;2024-01-15T04:31:23;100347.44;;;1.27;89.06
80188;BME280;73735;52.134;5.436;2024-01-15T04:33:51;100338.75;;;1.28;88.89
80188;BME280;73735;52.134;5.436;2024-01-15T04:36:18;100346.41;;;1.31;89.47
80188;BME280;73735;52.134;5.436;2024-01-15T04:38:45;100339.53;;;1.30;89.09
80188;BME280;73735;52.134;5.436;2024-01-15T04:41:15;100332.53;;;1.32;89.62
80188;BME280;73735;52.134;5.436;2024-01-15T04:43:42;100334.22;;;1.33;89.73
80188;BME280;73735;52.134;5.436;2024-01-15T04:46:09;100328.25;;;1.31;89.18
80188;BME280;73735;52.134;5.436;2024-01-15T04:48:36;100327.56;;;1.27;89.17
80188;BME280;73735;52.134;5.436;2024-01-15T04:51:08;100326.66;;;1.28;89.20
80188;BME280;73735;52.134;5.436;2024-01-15T04:53:37;100317.13;;;1.29;89.65
80188;BME280;73735;52.134;5.436;2024-01-15T04:56:04;100318.72;;;1.31;89.25
80188;BME280;73735;52.134;5.436;2024-01-15T04:58:30;100322.91;;;1.34;89.04
80188;BME280;73735;52.134;5.436;2024-01-15T05:00:57;100324.44;;;1.38;89.88
80188;BME280;73735;52.134;5.436;2024-01-15T05:03:23;100332.22;;;1.38;89.87
80188;BME280;73735;52.134;5.436;2024-01-15T05:05:50;100326.03;;;1.40;89.68
80188;BME280;73735;52.134;5.436;2024-01-15T05:08:17;100322.47;;;1.43;90.01
80188;BME280;73735;52.134;5.436;2024-01-15T05:10:44;100322.53;;;1.41;89.90
80188;BME280;73735;52.134;5.436;2024-01-15T05:13:11;100325.06;;;1.43;89.77
80188;BME280;73735;52.134;5.436;2024-01-15T05:15:37;100320.72;;;1.44;89.53
80188;BME280;73735;52.134;5.436;2024-01-15T05:18:04;100309.56;;;1.41;89.62
80188;BME280;73735;52.134;5.436;2024-01-15T05:20:30;100309.44;;;1.45;89.49
80188;BME280;73735;52.134;5.436;2024-01-15T05:22:57;100304.31;;;1.43;89.61
80188;BME280;73735;52.134;5.436;2024-01-15T05:25:24;100311.19;;;1.44;89.57
80188;BME280;73735;52.134;5.436;2024-01-15T05:27:50;100304.16;;;1.46;90.18
80188;BME280;73735;52.134;5.436;2024-01-15T05:30:17;100307.53;;;1.48;90.08
80188;BME280;73735;52.134;5.436;2024-01-15T05:32:43;100315.31;;;1.48;89.63
80188;BME280;73735;52.134;5.436;2024-01-15T05:35:10;100312.78;;;1.47;89.98
80188;BME280;73735;52.134;5.436;2024-01-15T05:37:36;100309.44;;;1.45;90.08
80188;BME280;73735;52.134;5.436;2024-01-15T05:40:03;100312.84;;;1.45;90.07
80188;BME280;73735;52.134;5.436;2024-01-15T05:42:31;100324.75;;;1.49;90.19
80188;BME280;73735;52.134;5.436;2024-01-15T05:44:58;100323.00;;;1.50;90.30
80188;BME280;73735;52.134;5.436;2024-01-15T05:47:25;100317.91;;;1.48;90.41
80188;BME280;73735;52.134;5.436;2024-01-15T05:49:52;100320.31;;;1.51;90.21
80188;BME280;73735;52.134;5.436;2024-01-15T05:52:19;100322.78;;;1.54;90.27
80188;BME280;73735;52.134;5.436;2024-01-15T05:54:47;100325.28;;;1.56;90.27
80188;BME280;73735;52.134;5.436;2024-01-15T05:57:16;100323.47;;;1.58;90.13
80188;BME280;73735;52.134;5.436;2024-01-15T05:59:44;100329.63;;;1.55;90.21
80188;BME280;73735;52.134;5.436;2024-01-15T06:02:11;100325.16;;;1.59;90.14
80188;BME280;73735;52.134;5.436;2024-01-15T06:04:37;100335.59;;;1.74;90.30
80188;BME280;73735;52.134;5.436;2024-01-15T06:07:03;100333.91;;;1.73;90.15
80188;BME280;73735;52.134;5.436;2024-01-15T06:09:30;100335.91;;;1.68;90.35
80188;BME280;73735;52.134;5.436;2024-01-15T06:11:58;100342.91;;;1.66;89.86
80188;BME280;73735;52.134;5.436;2024-01-15T06:14:24;100338.25;;;1.56;89.57
80188;BME280;73735;52.134;5.436;2024-01-15T06:16:52;100329.19;;;1.47;89.83
80188;BME280;73735;52.134;5.436;2024-01-15T06:19:18;100322.91;;;1.34;89.99
80188;BME280;73735;52.134;5.436;2024-01-15T06:21:45;100310.88;;;1.33;90.01
80188;BME280;73735;52.134;5.436;2024-01-15T06:24:11;100310.88;;;1.33;90.31
80188;BME280;73735;52.134;5.436;2024-01-15T06:26:39;100311.59;;;1.35;89.85
80188;BME280;73735;52.134;5.436;2024-01-15T06:29:06;100307.34;;;1.34;89.98
80188;BME280;73735;52.134;5.436;2024-01-15T06:31:32;100313.59;;;1.30;89.74
80188;BME280;73735;52.134;5.436;2024-01-15T06:33:59;100313.53;;;1.31;89.72
80188;BME280;73735;52.134;5.436;2024-01-15T06:36:26;100316.13;;;1.31;90.28
80188;BME280;73735;52.134;5.436;2024-01-15T06:38:52;100306.59;;;1.32;90.10
80188;BME280;73735;52.134;5.436;2024-01-15T06:41:19;100309.94;;;1.34;90.09
80188;BME280;73735;52.134;5.436;2024-01-15T06:43:45;100312.38;;;1.37;90.39
80188;BME280;73735;52.134;5.436;2024-01-15T06:46:11;100307.19;;;1.37;90.00
80188;BME280;73735;52.134;5.436;2024-01-15T06:48:38;100301.94;;;1.38;89.72
80188;BME280;73735;52.134;5.436;2024-01-15T06:51:05;100303.69;;;1.38;90.23
80188;BME280;73735;52.134;5.436;2024-01-15T06:53:31;100303.75;;;1.36;90.24
80188;BME280;73735;52.134;5.436;2024-01-15T06:55:58;100296.97;;;1.34;90.08
80188;BME280;73735;52.134;5.436;2024-01-15T06:58:24;100297.72;;;1.36;90.19
80188;BME280;73735;52.134;5.436;2024-01-15T07:00:51;100290.97;;;1.33;90.32
80188;BME280;73735;52.134;5.436;2024-01-15T07:03:17;100291.03;;;1.32;89.65
80188;BME280;73735;52.134;5.436;2024-01-15T07:05:44;100284.31;;;1.28;90.07
80188;BME280;73735;52.134;5.436;2024-01-15T07:08:11;100292.63;;;1.34;90.18
80188;BME280;73735;52.134;5.436;2024-01-15T07:10:37;100293.38;;;1.36;89.47
80188;BME280;73735;52.134;5.436;2024-01-15T07:13:04;100287.34;;;1.36;89.84
80188;BME280;73735;52.134;5.436;2024-01-15T07:15:31;100293.47;;;1.35;89.86
80188;BME280;73735;52.134;5.436;2024-01-15T07:17:58;100309.00;;;1.35;90.36
80188;BME280;73735;52.134;5.436;2024-01-15T07:20:24;100333.44;;;1.31;89.68
80188;BME280;73735;52.134;5.436;2024-01-15T07:22:51;100345.56;;;1.30;90.06
80188;BME280;73735;52.134;5.436;2024-01-15T07:25:17;100343.94;;;1.28;90.29
80188;BME280;73735;52.134;5.436;2024-01-15T07:27:44;100335.69;;;1.20;90.22
80188;BME280;73735;52.134;5.436;2024-01-15T07:30:12;100328.22;;;1.14;89.83
80188;BME280;73735;52.134;5.436;2024-01-15T07:32:39;100310.00;;;1.15;90.59
80188;BME280;73735;52.134;5.436;2024-01-15T07:35:05;100315.25;;;1.14;90.46
80188;BME280;73735;52.134;5.436;2024-01-15T07:37:32;100312.59;;;1.15;90.28
80188;BME280;73735;52.134;5.436;2024-01-15T07:39:59;100310.69;;;1.19;90.05
80188;BME280;73735;52.134;5.436;2024-01-15T07:42:27;100313.19;;;1.20;90.55
80188;BME280;73735;52.134;5.436;2024-01-15T07:44:53;100307.03;;;1.23;89.67
80188;BME280;73735;52.134;5.436;2024-01-15T07:47:20;100307.94;;;1.22;90.05
80188;BME280;73735;52.134;5.436;2024-01-15T07:49:46;100321.06;;;1.19;89.73
80188;BME280;73735;52.134;5.436;2024-01-15T07:52:13;100337.38;;;1.21;90.09
80188;BME280;73735;52.134;5.436;2024-01-15T07:54:40;100340.97;;;1.18;90.12
80188;BME280;73735;52.134;5.436;2024-01-15T07:57:06;100323.72;;;1.17;90.07
80188;BME280;73735;52.134;5.436;2024-01-15T07:59:35;100332.09;;;1.22;90.60
80188;BME280;73735;52.134;5.436;2024-01-15T08:02:01;100325.31;;;1.20;90.28
80188;BME280;73735;52.134;5.436;2024-01-15T08:04:28;100334.69;;;1.22;90.66
80188;BME280;73735;52.134;5.436;2024-01-15T08:06:55;100330.50;;;1.20;90.43
80188;BME280;73735;52.134;5.436;2024-01-15T08:09:23;100323.50;;;1.22;90.13
80188;BME280;73735;52.134;5.436;2024-01-15T08:11:50;100319.16;;;1.22;90.02
80188;BME280;73735;52.134;5.436;2024-01-15T08:14:17;100307.94;;;1.22;90.12
80188;BME280;73735;52.134;5.436;2024-01-15T08:16:44;100305.19;;;1.25;90.06
80188;BME280;73735;52.134;5.436;2024-01-15T08:19:12;100298.41;;;1.22;90.31
80188;BME280;73735;52.134;5.436;2024-01-15T08:21:40;100306.44;;;1.18;90.44
80188;BME280;73735;52.134;5.436;2024-01-15T08:24:10;100301.97;;;1.20;90.46
80188;BME280;73735;52.134;5.436;2024-01-15T08:26:37;100317.72;;;1.17;90.27
80188;BME280;73735;52.134;5.436;2024-01-15T08:29:04;100323.66;;;1.19;90.14
80188;BME280;73735;52.134;5.436;2024-01-15T08:31:30;100327.75;;;1.23;90.32
80188;BME280;73735;52.134;5.436;2024-01-15T08:33:57;100334.78;;;1.21;90.42
80188;BME280;73735;52.134;5.436;2024-01-15T08:36:24;100341.81;;;1.19;90.54
80188;BME280;73735;52.134;5.436;2024-01-15T08:38:51;100328.91;;;1.17;90.31
80188;BME280;73735;52.134;5.436;2024-01-15T08:41:17;100322.13;;;1.15;89.91
80188;BME280;73735;52.134;5.436;2024-01-15T08:43:44;100315.31;;;1.12;90.37
80188;BME280;73735;52.134;5.436;2024-01-15T08:46:10;100318.06;;;1.09;90.01
80188;BME280;73735;52.134;5.436;2024-01-15T08:48:37;100321.50;;;1.10;90.67
80188;BME280;73735;52.134;5.436;2024-01-15T08:51:03;100322.25;;;1.12;90.28
80188;BME280;73735;52.134;5.436;2024-01-15T08:53:30;100318.75;;;1.13;90.38
80188;BME280;73735;52.134;5.436;2024-01-15T08:55:57;100323.03;;;1.14;89.77
80188;BME280;73735;52.134;5.436;2024-01-15T08:58:23;100321.88;;;1.19;90.00
80188;BME280;73735;52.134;5.436;2024-01-15T09:00:50;100328.75;;;1.20;90.46
80188;BME280;73735;52.134;5.436;2024-01-15T09:03:17;100332.94;;;1.23;90.24
80188;BME280;73735;52.134;5.436;2024-01-15T09:05:43;100331.13;;;1.25;90.54
80188;BME280;73735;52.134;5.436;2024-01-15T09:08:10;100334.34;;;1.30;90.32
80188;BME280;73735;52.134;5.436;2024-01-15T09:10:37;100334.22;;;1.33;90.14
80188;BME280;73735;52.134;5.436;2024-01-15T09:13:03;100344.41;;;1.36;89.99
80188;BME280;73735;52.134;5.436;2024-01-15T09:15:31;100349.44;;;1.39;90.14
80188;BME280;73735;52.134;5.436;2024-01-15T09:17:57;100343.22;;;1.43;90.33
80188;BME280;73735;52.134;5.436;2024-01-15T09:20:25;100323.38;;;1.42;89.76
80188;BME280;73735;52.134;5.436;2024-01-15T09:22:53;100327.72;;;1.41;90.15
80188;BME280;73735;52.134;5.436;2024-01-15T09:25:20;100316.22;;;1.47;90.32
80188;BME280;73735;52.134;5.436;2024-01-15T09:27:46;100322.31;;;1.46;90.24
80188;BME280;73735;52.134;5.436;2024-01-15T09:30:13;100322.31;;;1.46;89.70
80188;BME280;73735;52.134;5.436;2024-01-15T09:32:40;100332.91;;;1.41;89.74
80188;BME280;73735;52.134;5.436;2024-01-15T09:35:06;100333.06;;;1.38;89.87
80188;BME280;73735;52.134;5.436;2024-01-15T09:37:34;100327.09;;;1.36;89.99
80188;BME280;73735;52.134;5.436;2024-01-15T09:40:13;100326.88;;;1.41;90.18
80188;BME280;73735;52.134;5.436;2024-01-15T09:42:43;100321.31;;;1.49;89.90
80188;BME280;73735;52.134;5.436;2024-01-15T09:45:11;100321.84;;;1.55;89.73
80188;BME280;73735;52.134;5.436;2024-01-15T09:47:38;100330.25;;;1.60;90.13
80188;BME280;73735;52.134;5.436;2024-01-15T09:50:10;100328.34;;;1.64;89.93
80188;BME280;73735;52.134;5.436;2024-01-15T09:52:37;100325.75;;;1.64;89.71
80188;BME280;73735;52.134;5.436;2024-01-15T09:55:05;100326.81;;;1.60;90.24
80188;BME280;73735;52.134;5.436;2024-01-15T09:57:32;100318.13;;;1.61;89.92
80188;BME280;73735;52.134;5.436;2024-01-15T10:00:01;100331.88;;;1.63;90.22
80188;BME280;73735;52.134;5.436;2024-01-15T10:02:31;100338.81;;;1.62;90.05
80188;BME280;73735;52.134;5.436;2024-01-15T10:04:57;100340.47;;;1.63;89.77
80188;BME280;73735;52.134;5.436;2024-01-15T10:07:25;100334.28;;;1.66;90.19
80188;BME280;73735;52.134;5.436;2024-01-15T10:09:52;100343.47;;;1.73;90.07
80188;BME280;73735;52.134;5.436;2024-01-15T10:12:19;100352.16;;;1.89;89.64
80188;BME280;73735;52.134;5.436;2024-01-15T10:14:47;100339.69;;;1.96;90.12
80188;BME280;73735;52.134;5.436;2024-01-15T10:17:15;100313.44;;;2.02;90.17
80188;BME280;73735;52.134;5.436;2024-01-15T10:19:45;100325.94;;;1.94;89.82
80188;BME280;73735;52.134;5.436;2024-01-15T10:22:15;100327.41;;;1.82;89.98
80188;BME280;73735;52.134;5.436;2024-01-15T10:24:42;100339.41;;;1.85;90.01
80188;BME280;73735;52.134;5.436;2024-01-15T10:27:10;100352.75;;;1.94;89.98
80188;BME280;73735;52.134;5.436;2024-01-15T10:29:36;100350.84;;;1.98;89.76
80188;BME280;73735;52.134;5.436;2024-01-15T10:32:07;100351.47;;;1.86;89.35
80188;BME280;73735;52.134;5.436;2024-01-15T10:34:38;100347.03;;;1.88;89.58
80188;BME280;73735;52.134;5.436;2024-01-15T10:37:10;100339.94;;;1.74;89.36
80188;BME280;73735;52.134;5.436;2024-01-15T10:39:37;100341.31;;;1.64;89.56
80188;BME280;73735;52.134;5.436;2024-01-15T10:42:04;100338.19;;;1.57;89.31
80188;BME280;73735;52.134;5.436;2024-01-15T10:44:32;100332.38;;;1.52;89.76
80188;BME280;73735;52.134;5.436;2024-01-15T10:46:59;100340.84;;;1.56;89.70
80188;BME280;73735;52.134;5.436;2024-01-15T10:49:25;100346.41;;;1.65;89.89
80188;BME280;73735;52.134;5.436;2024-01-15T10:51:57;100339.34;;;1.69;90.06
80188;BME280;73735;52.134;5.436;2024-01-15T10:54:27;100340.94;;;1.71;89.89
80188;BME280;73735;52.134;5.436;2024-01-15T10:56:56;100344.16;;;1.76;89.95
80188;BME280;73735;52.134;5.436;2024-01-15T10:59:22;100353.16;;;1.87;90.20
80188;BME280;73735;52.134;5.436;2024-01-15T11:01:50;100362.47;;;1.91;90.48
80188;BME280;73735;52.134;5.436;2024-01-15T11:04:21;100363.13;;;1.94;90.56
80188;BME280;73735;52.134;5.436;2024-01-15T11:06:50;100354.22;;;2.00;90.60
80188;BME280;73735;52.134;5.436;2024-01-15T11:09:17;100363.38;;;2.07;90.19
80188;BME280;73735;52.134;5.436;2024-01-15T11:11:45;100375.34;;;2.09;90.26
80188;BME280;73735;52.134;5.436;2024-01-15T11:14:47;100373.75;;;2.07;90.18
80188;BME280;73735;52.134;5.436;2024-01-15T11:17:14;100380.78;;;2.05;89.93
80188;BME280;73735;52.134;5.436;2024-01-15T11:22:54;100378.34;;;2.02;89.71
80188;BME280;73735;52.134;5.436;2024-01-15T11:24:55;100384.59;;;1.98;89.78
80188;BME280;73735;52.134;5.436;2024-01-15T11:27:40;100379.53;;;1.95;89.52
80188;BME280;73735;52.134;5.436;2024-01-15T11:30:10;100379.47;;;1.96;89.51
80188;BME280;73735;52.134;5.436;2024-01-15T11:32:39;100372.38;;;2.00;89.24
80188;BME280;73735;52.134;5.436;2024-01-15T11:35:10;100373.91;;;2.04;89.53
80188;BME280;73735;52.134;5.436;2024-01-15T11:42:47;100368.84;;;2.18;89.46
80188;BME280;73735;52.134;5.436;2024-01-15T11:45:19;100369.91;;;2.14;89.11
80188;BME280;73735;52.134;5.436;2024-01-15T11:50:43;100376.66;;;2.18;88.74
80188;BME280;73735;52.134;5.436;2024-01-15T11:53:36;100380.84;;;2.21;88.69
80188;BME280;73735;52.134;5.436;2024-01-15T11:56:06;100376.50;;;2.21;88.61
80188;BME280;73735;52.134;5.436;2024-01-15T11:58:38;100374.81;;;2.20;88.44
80188;BME280;73735;52.134;5.436;2024-01-15T12:01:04;100373.72;;;2.24;88.39
80188;BME280;73735;52.134;5.436;2024-01-15T12:03:32;100372.81;;;2.25;87.98
80188;BME280;73735;52.134;5.436;2024-01-15T12:05:59;100372.50;;;2.31;87.90
80188;BME280;73735;52.134;5.436;2024-01-15T12:08:26;100385.00;;;2.40;87.91
80188;BME280;73735;52.134;5.436;2024-01-15T12:10:53;100395.91;;;2.47;88.02
80188;BME280;73735;52.134;5.436;2024-01-15T12:13:20;100403.78;;;2.45;88.04
80188;BME280;73735;52.134;5.436;2024-01-15T12:15:47;100391.94;;;2.40;87.82
80188;BME280;73735;52.134;5.436;2024-01-15T12:18:16;100415.59;;;2.35;87.84
80188;BME280;73735;52.134;5.436;2024-01-15T12:20:45;100426.97;;;2.33;88.27
80188;BME280;73735;52.134;5.436;2024-01-15T12:23:15;100425.66;;;2.24;87.95
80188;BME280;73735;52.134;5.436;2024-01-15T12:25:42;100428.03;;;2.11;87.61
80188;BME280;73735;52.134;5.436;2024-01-15T12:28:09;100419.94;;;2.00;88.00
80188;BME280;73735;52.134;5.436;2024-01-15T12:30:36;100415.31;;;2.07;88.14
80188;BME280;73735;52.134;5.436;2024-01-15T12:33:05;100416.88;;;2.09;88.14
80188;BME280;73735;52.134;5.436;2024-01-15T12:35:33;100423.81;;;2.09;88.07
80188;BME280;73735;52.134;5.436;2024-01-15T12:38:01;100430.56;;;2.13;88.07
80188;BME280;73735;52.134;5.436;2024-01-15T12:40:31;100440.03;;;2.14;88.37
80188;BME280;73735;52.134;5.436;2024-01-15T12:43:03;100449.44;;;2.17;88.25
80188;BME280;73735;52.134;5.436;2024-01-15T12:45:31;100435.75;;;2.13;87.93
80188;BME280;73735;52.134;5.436;2024-01-15T12:47:58;100426.53;;;2.07;88.12
80188;BME280;73735;52.134;5.436;2024-01-15T12:50:25;100425.22;;;1.99;87.72
80188;BME280;73735;52.134;5.436;2024-01-15T12:52:54;100429.88;;;1.92;87.49
80188;BME280;73735;52.134;5.436;2024-01-15T12:55:21;100428.28;;;1.90;87.41
80188;BME280;73735;52.134;5.436;2024-01-15T12:57:49;100434.31;;;1.90;87.67
80188;BME280;73735;52.134;5.436;2024-01-15T13:00:19;100428.72;;;1.98;88.18
80188;BME280;73735;52.134;5.436;2024-01-15T13:02:45;100426.13;;;1.98;88.09
80188;BME280;73735;52.134;5.436;2024-01-15T13:05:12;100422.75;;;1.96;88.23
80188;BME280;73735;52.134;5.436;2024-01-15T13:07:41;100422.31;;;1.88;88.38
80188;BME280;73735;52.134;5.436;2024-01-15T13:10:08;100425.75;;;1.88;88.54
80188;BME280;73735;52.134;5.436;2024-01-15T13:12:37;100433.53;;;1.88;88.47